sensor_id;sensor_type;location;lat;lon;timestamp;pressure;altitude;pressure_sealevel;temperature;humidity
11806;BME280;5960;42.602;23.482;2022-09-12T00:01:52;93207.84;;;16.36;81.53
11806;BME280;5960;42.602;23.482;2022-09-12T00:04:19;93224.03;;;16.34;81.92
11806;BME280;5960;42.602;23.482;2022-09-12T00:06:46;93223.09;;;16.29;81.61
11806;BME280;5960;42.602;23.482;2022-09-12T00:09:13;93220.56;;;16.34;81.70
11806;BME280;5960;42.602;23.482;2022-09-12T00:11:42;93220.91;;;16.37;80.75
11806;BME280;5960;42.602;23.482;2022-09-12T00:14:12;93232.47;;;16.31;80.69
11806;BME280;5960;42.602;23.482;2022-09-12T00:16:41;93231.19;;;16.22;80.61
11806;BME280;5960;42.602;23.482;2022-09-12T00:19:08;93228.19;;;16.18;80.69
11806;BME280;5960;42.602;23.482;2022-09-12T00:21:37;93230.59;;;16.08;80.59
11806;BME280;5960;42.602;23.482;2022-09-12T00:24:05;93244.00;;;16.13;81.00
11806;BME280;5960;42.602;23.482;2022-09-12T00:26:32;93239.41;;;16.20;80.87
11806;BME280;5960;42.602;23.482;2022-09-12T00:28:59;93238.47;;;16.27;80.21
11806;BME280;5960;42.602;23.482;2022-09-12T00:31:26;93242.25;;;16.07;80.05
11806;BME280;5960;42.602;23.482;2022-09-12T00:33:56;93253.13;;;16.05;80.60
11806;BME280;5960;42.602;23.482;2022-09-12T00:36:24;93251.16;;;16.13;80.85
11806;BME280;5960;42.602;23.482;2022-09-12T00:38:51;93243.09;;;16.19;80.44
11806;BME280;5960;42.602;23.482;2022-09-12T00:41:21;93243.19;;;16.13;80.66
11806;BME280;5960;42.602;23.482;2022-09-12T00:43:49;93241.47;;;16.18;80.43
11806;BME280;5960;42.602;23.482;2022-09-12T00:46:28;93250.13;;;16.25;80.10
11806;BME280;5960;42.602;23.482;2022-09-12T00:48:59;93250.38;;;16.24;79.79
11806;BME280;5960;42.602;23.482;2022-09-12T00:51:28;93241.78;;;16.10;80.01
11806;BME280;5960;42.602;23.482;2022-09-12T00:53:59;93248.28;;;16.14;80.15
11806;BME280;5960;42.602;23.482;2022-09-12T00:56:27;93240.50;;;15.89;80.25
11806;BME280;5960;42.602;23.482;2022-09-12T00:58:59;93234.50;;;15.93;80.34
11806;BME280;5960;42.602;23.482;2022-09-12T01:01:27;93238.88;;;15.88;79.55
11806;BME280;5960;42.602;23.482;2022-09-12T01:03:54;93230.84;;;15.76;80.00
11806;BME280;5960;42.602;23.482;2022-09-12T01:06:26;93225.75;;;15.74;80.58
11806;BME280;5960;42.602;23.482;2022-09-12T01:08:54;93235.09;;;15.65;80.58
11806;BME280;5960;42.602;23.482;2022-09-12T01:11:22;93227.22;;;15.70;80.31
11806;BME280;5960;42.602;23.482;2022-09-12T01:13:49;93230.47;;;15.72;80.42
11806;BME280;5960;42.602;23.482;2022-09-12T01:16:16;93225.97;;;15.73;79.73
11806;BME280;5960;42.602;23.482;2022-09-12T01:18:53;93219.81;;;15.60;79.59
11806;BME280;5960;42.602;23.482;2022-09-12T01:21:33;93217.44;;;15.40;79.72
11806;BME280;5960;42.602;23.482;2022-09-12T01:24:33;93220.75;;;15.35;79.63
11806;BME280;5960;42.602;23.482;2022-09-12T01:27:26;93215.38;;;15.24;79.55
11806;BME280;5960;42.602;23.482;2022-09-12T01:30:18;93220.84;;;15.29;79.68
11806;BME280;5960;42.602;23.482;2022-09-12T01:32:54;93213.47;;;15.31;79.12
11806;BME280;5960;42.602;23.482;2022-09-12T01:35:25;93213.41;;;15.19;79.15
11806;BME280;5960;42.602;23.482;2022-09-12T01:38:08;93221.13;;;15.20;79.29
11806;BME280;5960;42.602;23.482;2022-09-12T01:40:41;93225.56;;;15.27;79.38
11806;BME280;5960;42.602;23.482;2022-09-12T01:43:13;93222.91;;;15.27;79.34
11806;BME280;5960;42.602;23.482;2022-09-12T01:45:53;93219.44;;;15.26;78.77
11806;BME280;5960;42.602;23.482;2022-09-12T01:48:23;93217.19;;;15.11;79.34
11806;BME280;5960;42.602;23.482;2022-09-12T01:50:57;93211.91;;;14.93;80.18
11806;BME280;5960;42.602;23.482;2022-09-12T01:53:29;93213.44;;;15.00;80.02
11806;BME280;5960;42.602;23.482;2022-09-12T01:56:04;93216.81;;;15.08;80.20
11806;BME280;5960;42.602;23.482;2022-09-12T01:58:37;93221.31;;;15.07;80.19
11806;BME280;5960;42.602;23.482;2022-09-12T02:01:11;93214.09;;;15.14;79.89
11806;BME280;5960;42.602;23.482;2022-09-12T02:03:42;93209.47;;;15.22;79.52
11806;BME280;5960;42.602;23.482;2022-09-12T02:06:16;93211.00;;;15.17;79.37
11806;BME280;5960;42.602;23.482;2022-09-12T02:08:47;93194.19;;;15.05;79.36
11806;BME280;5960;42.602;23.482;2022-09-12T02:11:17;93196.13;;;14.79;80.10
11806;BME280;5960;42.602;23.482;2022-09-12T02:13:48;93190.00;;;14.79;80.52
11806;BME280;5960;42.602;23.482;2022-09-12T02:16:21;93201.06;;;14.76;80.03
11806;BME280;5960;42.602;23.482;2022-09-12T02:18:54;93205.81;;;14.67;80.40
11806;BME280;5960;42.602;23.482;2022-09-12T02:21:25;93211.66;;;14.76;80.36
11806;BME280;5960;42.602;23.482;2022-09-12T02:23:54;93218.75;;;14.82;79.92
11806;BME280;5960;42.602;23.482;2022-09-12T02:26:26;93225.00;;;14.87;79.21
11806;BME280;5960;42.602;23.482;2022-09-12T02:28:55;93213.56;;;14.87;79.45
11806;BME280;5960;42.602;23.482;2022-09-12T02:31:26;93221.53;;;14.87;78.90
11806;BME280;5960;42.602;23.482;2022-09-12T02:34:05;93221.00;;;14.78;79.44
11806;BME280;5960;42.602;23.482;2022-09-12T02:36:40;93221.31;;;14.70;79.50
11806;BME280;5960;42.602;23.482;2022-09-12T02:39:11;93217.91;;;14.81;79.26
11806;BME280;5960;42.602;23.482;2022-09-12T02:41:38;93218.16;;;14.54;80.06
11806;BME280;5960;42.602;23.482;2022-09-12T02:44:05;93218.97;;;14.36;80.74
11806;BME280;5960;42.602;23.482;2022-09-12T02:46:37;93221.03;;;14.34;81.02
11806;BME280;5960;42.602;23.482;2022-09-12T02:49:05;93223.81;;;14.39;80.75
11806;BME280;5960;42.602;23.482;2022-09-12T02:51:32;93223.78;;;14.46;80.68
11806;BME280;5960;42.602;23.482;2022-09-12T02:53:59;93224.47;;;14.35;81.08
11806;BME280;5960;42.602;23.482;2022-09-12T02:56:29;93223.97;;;14.44;80.48
11806;BME280;5960;42.602;23.482;2022-09-12T02:58:58;93218.41;;;14.53;80.17
11806;BME280;5960;42.602;23.482;2022-09-12T03:01:35;93228.25;;;14.64;79.92
11806;BME280;5960;42.602;23.482;2022-09-12T03:04:23;93229.47;;;14.68;79.49
11806;BME280;5960;42.602;23.482;2022-09-12T03:07:00;93234.94;;;14.73;79.28
11806;BME280;5960;42.602;23.482;2022-09-12T03:09:35;93236.72;;;14.80;78.69
11806;BME280;5960;42.602;23.482;2022-09-12T03:12:12;93237.16;;;14.77;78.49
11806;BME280;5960;42.602;23.482;2022-09-12T03:14:56;93237.91;;;14.84;78.72
11806;BME280;5960;42.602;23.482;2022-09-12T03:17:41;93236.19;;;14.89;77.92
11806;BME280;5960;42.602;23.482;2022-09-12T03:20:11;93233.16;;;14.86;78.31
11806;BME280;5960;42.602;23.482;2022-09-12T03:22:48;93235.94;;;14.54;78.68
11806;BME280;5960;42.602;23.482;2022-09-12T03:25:20;93226.31;;;14.34;79.64
11806;BME280;5960;42.602;23.482;2022-09-12T03:27:53;93236.44;;;14.44;79.54
11806;BME280;5960;42.602;23.482;2022-09-12T03:30:21;93233.94;;;14.49;79.29
11806;BME280;5960;42.602;23.482;2022-09-12T03:32:51;93233.94;;;14.49;79.60
11806;BME280;5960;42.602;23.482;2022-09-12T03:35:21;93235.31;;;14.52;79.70
11806;BME280;5960;42.602;23.482;2022-09-12T03:37:49;93230.91;;;14.45;80.11
11806;BME280;5960;42.602;23.482;2022-09-12T03:40:16;93228.06;;;14.40;80.49
11806;BME280;5960;42.602;23.482;2022-09-12T03:42:43;93237.22;;;14.44;80.77
11806;BME280;5960;42.602;23.482;2022-09-12T03:45:10;93230.91;;;14.45;80.89
11806;BME280;5960;42.602;23.482;2022-09-12T03:47:37;93231.50;;;14.48;80.85
11806;BME280;5960;42.602;23.482;2022-09-12T03:50:07;93237.53;;;14.36;81.60
11806;BME280;5960;42.602;23.482;2022-09-12T03:52:34;93237.88;;;14.40;81.42
11806;BME280;5960;42.602;23.482;2022-09-12T03:55:01;93236.84;;;14.41;81.58
11806;BME280;5960;42.602;23.482;2022-09-12T03:57:27;93234.88;;;14.36;81.51
11806;BME280;5960;42.602;23.482;2022-09-12T03:59:54;93230.28;;;14.43;81.38
11806;BME280;5960;42.602;23.482;2022-09-12T04:02:21;93235.59;;;14.43;81.28
11806;BME280;5960;42.602;23.482;2022-09-12T04:04:48;93236.31;;;14.32;81.77
11806;BME280;5960;42.602;23.482;2022-09-12T04:07:16;93235.47;;;14.38;81.98
11806;BME280;5960;42.602;23.482;2022-09-12T04:09:43;93234.56;;;14.44;81.58
11806;BME280;5960;42.602;23.482;2022-09-12T04:12:10;93237.06;;;14.39;81.85
11806;BME280;5960;42.602;23.482;2022-09-12T04:14:37;93239.72;;;14.39;81.51
11806;BME280;5960;42.602;23.482;2022-09-12T04:17:03;93239.28;;;14.42;81.29
11806;BME280;5960;42.602;23.482;2022-09-12T04:19:30;93239.94;;;14.38;81.23
11806;BME280;5960;42.602;23.482;2022-09-12T04:21:57;93244.47;;;14.30;81.06
11806;BME280;5960;42.602;23.482;2022-09-12T04:24:25;93252.22;;;14.32;81.00
11806;BME280;5960;42.602;23.482;2022-09-12T04:26:51;93249.84;;;14.24;81.44
11806;BME280;5960;42.602;23.482;2022-09-12T04:29:18;93243.84;;;14.10;82.03
11806;BME280;5960;42.602;23.482;2022-09-12T04:31:45;93239.63;;;14.02;82.20
11806;BME280;5960;42.602;23.482;2022-09-12T04:34:12;93250.63;;;13.99;82.26
11806;BME280;5960;42.602;23.482;2022-09-12T04:36:39;93249.41;;;14.02;82.46
11806;BME280;5960;42.602;23.482;2022-09-12T04:39:06;93256.28;;;14.09;82.66
11806;BME280;5960;42.602;23.482;2022-09-12T04:41:36;93256.56;;;14.26;81.77
11806;BME280;5960;42.602;23.482;2022-09-12T04:44:05;93254.53;;;14.22;81.79
11806;BME280;5960;42.602;23.482;2022-09-12T04:46:34;93261.81;;;14.33;81.49
11806;BME280;5960;42.602;23.482;2022-09-12T04:49:01;93256.38;;;14.47;81.27
11806;BME280;5960;42.602;23.482;2022-09-12T04:51:29;93255.78;;;14.44;81.03
11806;BME280;5960;42.602;23.482;2022-09-12T04:53:59;93247.06;;;14.63;80.90
11806;BME280;5960;42.602;23.482;2022-09-12T04:56:27;93259.41;;;14.76;80.68
11806;BME280;5960;42.602;23.482;2022-09-12T04:58:57;93260.88;;;14.90;80.14
11806;BME280;5960;42.602;23.482;2022-09-12T05:01:26;93259.56;;;14.99;78.74
11806;BME280;5960;42.602;23.482;2022-09-12T05:03:54;93256.16;;;15.11;78.58
11806;BME280;5960;42.602;23.482;2022-09-12T05:06:23;93260.72;;;15.22;78.96
11806;BME280;5960;42.602;23.482;2022-09-12T05:08:50;93259.91;;;15.40;78.37
11806;BME280;5960;42.602;23.482;2022-09-12T05:11:20;93263.31;;;15.59;77.70
11806;BME280;5960;42.602;23.482;2022-09-12T05:13:47;93257.38;;;15.45;77.27
11806;BME280;5960;42.602;23.482;2022-09-12T05:16:16;93255.34;;;15.59;77.61
11806;BME280;5960;42.602;23.482;2022-09-12T05:18:44;93259.22;;;15.75;77.34
11806;BME280;5960;42.602;23.482;2022-09-12T05:21:13;93264.63;;;15.87;76.03
11806;BME280;5960;42.602;23.482;2022-09-12T05:23:40;93261.66;;;15.96;75.35
11806;BME280;5960;42.602;23.482;2022-09-12T05:26:11;93266.13;;;15.95;75.26
11806;BME280;5960;42.602;23.482;2022-09-12T05:28:38;93264.91;;;16.09;75.25
11806;BME280;5960;42.602;23.482;2022-09-12T05:31:07;93263.78;;;16.29;74.56
11806;BME280;5960;42.602;23.482;2022-09-12T05:33:36;93264.59;;;16.42;74.94
11806;BME280;5960;42.602;23.482;2022-09-12T05:36:05;93260.13;;;16.66;73.74
11806;BME280;5960;42.602;23.482;2022-09-12T05:38:33;93267.16;;;16.84;73.17
11806;BME280;5960;42.602;23.482;2022-09-12T05:41:04;93258.50;;;17.01;72.59
11806;BME280;5960;42.602;23.482;2022-09-12T05:43:31;93259.84;;;17.27;71.34
11806;BME280;5960;42.602;23.482;2022-09-12T05:46:01;93254.13;;;17.47;70.64
11806;BME280;5960;42.602;23.482;2022-09-12T05:48:29;93262.66;;;17.61;69.46
11806;BME280;5960;42.602;23.482;2022-09-12T05:51:01;93262.72;;;17.66;68.73
11806;BME280;5960;42.602;23.482;2022-09-12T05:53:28;93257.97;;;17.68;69.05
11806;BME280;5960;42.602;23.482;2022-09-12T05:56:04;93260.69;;;17.85;69.15
11806;BME280;5960;42.602;23.482;2022-09-12T05:58:31;93259.38;;;17.88;69.15
11806;BME280;5960;42.602;23.482;2022-09-12T06:01:01;93263.59;;;17.84;68.88
11806;BME280;5960;42.602;23.482;2022-09-12T06:03:28;93257.56;;;17.88;69.12
11806;BME280;5960;42.602;23.482;2022-09-12T06:05:54;93256.47;;;18.01;69.01
11806;BME280;5960;42.602;23.482;2022-09-12T06:08:23;93250.44;;;18.23;68.16
11806;BME280;5960;42.602;23.482;2022-09-12T06:10:49;93248.19;;;18.49;66.63
11806;BME280;5960;42.602;23.482;2022-09-12T06:13:16;93250.34;;;18.69;66.18
11806;BME280;5960;42.602;23.482;2022-09-12T06:15:43;93245.63;;;18.93;65.32
11806;BME280;5960;42.602;23.482;2022-09-12T06:18:09;93240.69;;;19.02;64.73
11806;BME280;5960;42.602;23.482;2022-09-12T06:20:36;93248.41;;;19.21;64.02
11806;BME280;5960;42.602;23.482;2022-09-12T06:23:03;93240.00;;;19.34;63.19
11806;BME280;5960;42.602;23.482;2022-09-12T06:25:31;93234.00;;;19.44;61.97
11806;BME280;5960;42.602;23.482;2022-09-12T06:27:57;93240.63;;;19.64;61.65
11806;BME280;5960;42.602;23.482;2022-09-12T06:30:25;93242.66;;;19.79;60.88
11806;BME280;5960;42.602;23.482;2022-09-12T06:32:52;93244.16;;;19.92;60.69
11806;BME280;5960;42.602;23.482;2022-09-12T06:35:21;93239.50;;;20.09;60.03
11806;BME280;5960;42.602;23.482;2022-09-12T06:37:47;93241.88;;;20.38;60.06
11806;BME280;5960;42.602;23.482;2022-09-12T06:40:14;93243.31;;;20.51;58.02
11806;BME280;5960;42.602;23.482;2022-09-12T06:42:42;93254.41;;;20.65;58.51
11806;BME280;5960;42.602;23.482;2022-09-12T06:45:09;93260.44;;;20.78;58.05
11806;BME280;5960;42.602;23.482;2022-09-12T06:47:36;93263.09;;;20.78;58.73
11806;BME280;5960;42.602;23.482;2022-09-12T06:50:04;93269.19;;;20.73;58.55
11806;BME280;5960;42.602;23.482;2022-09-12T06:52:31;93259.81;;;20.38;58.44
11806;BME280;5960;42.602;23.482;2022-09-12T06:54:58;93268.88;;;20.04;59.61
11806;BME280;5960;42.602;23.482;2022-09-12T06:57:24;93271.19;;;19.73;60.57
11806;BME280;5960;42.602;23.482;2022-09-12T06:59:56;93274.31;;;19.65;60.72
11806;BME280;5960;42.602;23.482;2022-09-12T07:02:23;93272.00;;;19.51;60.98
11806;BME280;5960;42.602;23.482;2022-09-12T07:04:51;93286.53;;;19.38;61.72
11806;BME280;5960;42.602;23.482;2022-09-12T07:07:17;93283.31;;;19.14;62.70
11806;BME280;5960;42.602;23.482;2022-09-12T07:09:44;93284.38;;;18.96;63.23
11806;BME280;5960;42.602;23.482;2022-09-12T07:12:11;93291.22;;;18.92;62.93
11806;BME280;5960;42.602;23.482;2022-09-12T07:14:38;93288.09;;;18.95;63.56
11806;BME280;5960;42.602;23.482;2022-09-12T07:17:06;93288.75;;;18.85;63.52
11806;BME280;5960;42.602;23.482;2022-09-12T07:19:33;93287.44;;;19.05;63.50
11806;BME280;5960;42.602;23.482;2022-09-12T07:21:59;93288.13;;;19.57;62.83
11806;BME280;5960;42.602;23.482;2022-09-12T07:24:26;93285.63;;;19.94;60.14
11806;BME280;5960;42.602;23.482;2022-09-12T07:26:53;93286.94;;;19.92;60.09
11806;BME280;5960;42.602;23.482;2022-09-12T07:29:20;93288.25;;;19.67;59.76
11806;BME280;5960;42.602;23.482;2022-09-12T07:31:47;93285.94;;;19.31;60.86
11806;BME280;5960;42.602;23.482;2022-09-12T07:34:15;93278.63;;;19.66;60.84
11806;BME280;5960;42.602;23.482;2022-09-12T07:36:42;93283.41;;;20.13;60.46
11806;BME280;5960;42.602;23.482;2022-09-12T07:39:08;93285.84;;;20.48;58.92
11806;BME280;5960;42.602;23.482;2022-09-12T07:41:36;93281.84;;;20.45;58.50
11806;BME280;5960;42.602;23.482;2022-09-12T07:44:03;93282.66;;;20.51;58.52
11806;BME280;5960;42.602;23.482;2022-09-12T07:46:31;93284.84;;;20.26;58.90
11806;BME280;5960;42.602;23.482;2022-09-12T07:48:59;93281.44;;;20.31;59.01
11806;BME280;5960;42.602;23.482;2022-09-12T07:51:29;93286.19;;;20.24;58.19
11806;BME280;5960;42.602;23.482;2022-09-12T07:53:56;93282.09;;;19.89;58.91
11806;BME280;5960;42.602;23.482;2022-09-12T07:56:24;93279.16;;;19.68;59.21
11806;BME280;5960;42.602;23.482;2022-09-12T07:58:51;93276.03;;;19.76;58.15
11806;BME280;5960;42.602;23.482;2022-09-12T08:01:19;93284.56;;;20.23;58.03
11806;BME280;5960;42.602;23.482;2022-09-12T08:03:51;93274.81;;;20.39;56.27
11806;BME280;5960;42.602;23.482;2022-09-12T08:06:20;93274.47;;;20.30;56.82
11806;BME280;5960;42.602;23.482;2022-09-12T08:08:49;93275.59;;;20.34;57.38
11806;BME280;5960;42.602;23.482;2022-09-12T08:11:19;93280.16;;;20.71;55.49
11806;BME280;5960;42.602;23.482;2022-09-12T08:13:46;93285.72;;;20.65;55.69
11806;BME280;5960;42.602;23.482;2022-09-12T08:16:15;93285.19;;;20.03;56.44
11806;BME280;5960;42.602;23.482;2022-09-12T08:18:43;93284.81;;;19.72;57.73
11806;BME280;5960;42.602;23.482;2022-09-12T08:21:13;93288.34;;;19.77;58.04
11806;BME280;5960;42.602;23.482;2022-09-12T08:23:41;93279.72;;;19.92;57.62
11806;BME280;5960;42.602;23.482;2022-09-12T08:26:10;93286.94;;;19.92;56.00
11806;BME280;5960;42.602;23.482;2022-09-12T08:28:37;93286.97;;;19.97;56.04
11806;BME280;5960;42.602;23.482;2022-09-12T08:31:06;93288.69;;;20.36;56.25
11806;BME280;5960;42.602;23.482;2022-09-12T08:33:34;93283.09;;;20.70;54.80
11806;BME280;5960;42.602;23.482;2022-09-12T08:36:03;93280.84;;;20.89;54.33
11806;BME280;5960;42.602;23.482;2022-09-12T08:38:31;93280.09;;;20.94;53.62
11806;BME280;5960;42.602;23.482;2022-09-12T08:41:02;93283.75;;;20.82;54.47
11806;BME280;5960;42.602;23.482;2022-09-12T08:43:46;93291.88;;;20.65;54.17
11806;BME280;5960;42.602;23.482;2022-09-12T08:46:22;93282.94;;;20.82;54.27
11806;BME280;5960;42.602;23.482;2022-09-12T08:48:50;93270.72;;;20.96;53.14
11806;BME280;5960;42.602;23.482;2022-09-12T08:51:19;93276.19;;;21.17;53.34
11806;BME280;5960;42.602;23.482;2022-09-12T08:53:47;93281.66;;;21.38;53.60
11806;BME280;5960;42.602;23.482;2022-09-12T08:56:14;93273.66;;;21.43;53.02
11806;BME280;5960;42.602;23.482;2022-09-12T08:58:44;93270.13;;;21.96;52.79
11806;BME280;5960;42.602;23.482;2022-09-12T09:01:19;93266.97;;;22.35;50.87
11806;BME280;5960;42.602;23.482;2022-09-12T09:04:15;93269.38;;;22.31;50.77
11806;BME280;5960;42.602;23.482;2022-09-12T09:09:54;93262.16;;;21.53;51.89
11806;BME280;5960;42.602;23.482;2022-09-12T09:12:27;93267.38;;;21.70;52.41
11806;BME280;5960;42.602;23.482;2022-09-12T09:15:06;93274.97;;;21.99;51.41
11806;BME280;5960;42.602;23.482;2022-09-12T09:17:39;93268.06;;;22.54;49.99
11806;BME280;5960;42.602;23.482;2022-09-12T09:20:15;93264.66;;;23.66;48.11
11806;BME280;5960;42.602;23.482;2022-09-12T09:22:50;93263.41;;;24.48;45.04
11806;BME280;5960;42.602;23.482;2022-09-12T09:25:20;93248.88;;;24.49;44.44
11806;BME280;5960;42.602;23.482;2022-09-12T09:27:53;93245.72;;;23.97;45.63
11806;BME280;5960;42.602;23.482;2022-09-12T09:30:22;93253.66;;;24.18;44.52
11806;BME280;5960;42.602;23.482;2022-09-12T09:32:51;93248.84;;;24.55;44.22
11806;BME280;5960;42.602;23.482;2022-09-12T09:35:27;93247.47;;;24.92;42.91
11806;BME280;5960;42.602;23.482;2022-09-12T09:38:00;93241.81;;;24.59;43.41
11806;BME280;5960;42.602;23.482;2022-09-12T09:40:36;93248.38;;;24.42;43.68
11806;BME280;5960;42.602;23.482;2022-09-12T09:43:16;93255.41;;;23.93;44.33
11806;BME280;5960;42.602;23.482;2022-09-12T09:45:46;93252.47;;;23.84;44.40
11806;BME280;5960;42.602;23.482;2022-09-12T09:48:17;93247.31;;;23.93;44.59
11806;BME280;5960;42.602;23.482;2022-09-12T09:50:45;93246.78;;;23.91;45.36
11806;BME280;5960;42.602;23.482;2022-09-12T09:53:24;93249.22;;;23.22;46.39
11806;BME280;5960;42.602;23.482;2022-09-12T09:55:54;93252.50;;;22.77;47.03
11806;BME280;5960;42.602;23.482;2022-09-12T09:58:29;93254.63;;;22.75;47.51
11806;BME280;5960;42.602;23.482;2022-09-12T10:01:01;93252.47;;;22.36;47.68
11806;BME280;5960;42.602;23.482;2022-09-12T10:03:30;93250.06;;;22.29;48.15
11806;BME280;5960;42.602;23.482;2022-09-12T10:05:59;93249.81;;;22.72;47.78
11806;BME280;5960;42.602;23.482;2022-09-12T10:08:28;93243.41;;;23.70;45.91
11806;BME280;5960;42.602;23.482;2022-09-12T10:10:58;93241.16;;;23.87;44.99
11806;BME280;5960;42.602;23.482;2022-09-12T10:13:50;93245.69;;;23.37;45.48
11806;BME280;5960;42.602;23.482;2022-09-12T10:16:21;93236.66;;;23.78;44.70
11806;BME280;5960;42.602;23.482;2022-09-12T10:18:49;93241.97;;;23.88;44.63
11806;BME280;5960;42.602;23.482;2022-09-12T10:21:32;93245.75;;;23.01;46.51
11806;BME280;5960;42.602;23.482;2022-09-12T10:24:04;93244.91;;;23.31;44.38
11806;BME280;5960;42.602;23.482;2022-09-12T10:26:34;93239.81;;;23.09;45.20
11806;BME280;5960;42.602;23.482;2022-09-12T10:29:10;93241.75;;;22.57;46.24
11806;BME280;5960;42.602;23.482;2022-09-12T10:31:45;93246.59;;;22.75;46.27
11806;BME280;5960;42.602;23.482;2022-09-12T10:34:26;93242.28;;;23.81;44.86
11806;BME280;5960;42.602;23.482;2022-09-12T10:37:00;93231.84;;;24.19;43.16
11806;BME280;5960;42.602;23.482;2022-09-12T10:39:28;93248.09;;;24.44;42.73
11806;BME280;5960;42.602;23.482;2022-09-12T10:41:55;93245.31;;;24.89;42.10
11806;BME280;5960;42.602;23.482;2022-09-12T10:44:27;93233.78;;;25.13;40.79
11806;BME280;5960;42.602;23.482;2022-09-12T10:46:57;93233.22;;;25.40;40.21
11806;BME280;5960;42.602;23.482;2022-09-12T10:49:27;93248.91;;;25.87;39.43
11806;BME280;5960;42.602;23.482;2022-09-12T10:51:56;93238.53;;;25.75;40.04
11806;BME280;5960;42.602;23.482;2022-09-12T10:54:26;93237.47;;;26.14;38.46
11806;BME280;5960;42.602;23.482;2022-09-12T10:57:18;93225.47;;;26.58;38.41
11806;BME280;5960;42.602;23.482;2022-09-12T11:00:00;93237.09;;;26.59;38.62
11806;BME280;5960;42.602;23.482;2022-09-12T11:02:42;93229.56;;;26.89;37.85
11806;BME280;5960;42.602;23.482;2022-09-12T11:05:19;93220.50;;;27.13;37.61
11806;BME280;5960;42.602;23.482;2022-09-12T11:07:51;93229.84;;;27.34;36.46
11806;BME280;5960;42.602;23.482;2022-09-12T11:10:25;93234.88;;;27.83;35.93
11806;BME280;5960;42.602;23.482;2022-09-12T11:13:03;93240.66;;;27.21;36.46
11806;BME280;5960;42.602;23.482;2022-09-12T11:16:00;93225.34;;;27.30;35.74
11806;BME280;5960;42.602;23.482;2022-09-12T11:18:47;93231.78;;;27.62;35.41
11806;BME280;5960;42.602;23.482;2022-09-12T11:21:27;93229.81;;;28.04;34.12
11806;BME280;5960;42.602;23.482;2022-09-12T11:24:11;93225.06;;;27.73;34.99
11806;BME280;5960;42.602;23.482;2022-09-12T11:26:56;93228.44;;;27.23;35.22
11806;BME280;5960;42.602;23.482;2022-09-12T11:29:36;93222.22;;;26.76;36.26
11806;BME280;5960;42.602;23.482;2022-09-12T11:32:19;93220.84;;;27.25;36.23
11806;BME280;5960;42.602;23.482;2022-09-12T11:35:01;93225.34;;;26.83;36.39
11806;BME280;5960;42.602;23.482;2022-09-12T11:37:43;93213.13;;;26.52;37.48
11806;BME280;5960;42.602;23.482;2022-09-12T11:40:24;93221.56;;;25.50;38.47
11806;BME280;5960;42.602;23.482;2022-09-12T11:42:58;93228.44;;;25.80;38.44
11806;BME280;5960;42.602;23.482;2022-09-12T11:45:29;93225.72;;;26.24;37.79
11806;BME280;5960;42.602;23.482;2022-09-12T11:48:04;93224.28;;;26.12;37.32
11806;BME280;5960;42.602;23.482;2022-09-12T11:50:33;93216.59;;;26.72;36.55
11806;BME280;5960;42.602;23.482;2022-09-12T11:53:06;93219.91;;;27.16;35.66
11806;BME280;5960;42.602;23.482;2022-09-12T11:55:45;93200.53;;;26.95;33.73
11806;BME280;5960;42.602;23.482;2022-09-12T11:58:13;93210.88;;;27.07;35.00
11806;BME280;5960;42.602;23.482;2022-09-12T12:00:45;93203.38;;;27.45;34.59
11806;BME280;5960;42.602;23.482;2022-09-12T12:03:16;93217.75;;;27.74;35.30
11806;BME280;5960;42.602;23.482;2022-09-12T12:05:51;93204.47;;;27.86;34.75
11806;BME280;5960;42.602;23.482;2022-09-12T12:08:20;93211.75;;;27.49;35.73
11806;BME280;5960;42.602;23.482;2022-09-12T12:10:50;93208.63;;;27.70;36.04
11806;BME280;5960;42.602;23.482;2022-09-12T12:13:21;93215.78;;;28.02;35.10
11806;BME280;5960;42.602;23.482;2022-09-12T12:15:53;93217.34;;;27.53;34.83
11806;BME280;5960;42.602;23.482;2022-09-12T12:18:23;93226.56;;;26.57;36.54
11806;BME280;5960;42.602;23.482;2022-09-12T12:20:53;93220.25;;;26.48;36.38
11806;BME280;5960;42.602;23.482;2022-09-12T12:23:30;93230.75;;;26.31;37.18
11806;BME280;5960;42.602;23.482;2022-09-12T12:25:59;93223.81;;;26.43;37.99
11806;BME280;5960;42.602;23.482;2022-09-12T12:28:58;93214.38;;;26.74;37.50
11806;BME280;5960;42.602;23.482;2022-09-12T12:31:25;93219.63;;;27.45;36.13
11806;BME280;5960;42.602;23.482;2022-09-12T12:34:20;93216.63;;;27.75;35.86
11806;BME280;5960;42.602;23.482;2022-09-12T12:36:49;93216.78;;;27.09;36.08
11806;BME280;5960;42.602;23.482;2022-09-12T12:43:00;93215.84;;;25.27;39.30
11806;BME280;5960;42.602;23.482;2022-09-12T12:45:57;93214.66;;;25.82;38.60
11806;BME280;5960;42.602;23.482;2022-09-12T12:51:27;93205.25;;;25.79;38.12
11806;BME280;5960;42.602;23.482;2022-09-12T12:53:56;93210.75;;;25.50;39.17
11806;BME280;5960;42.602;23.482;2022-09-12T12:56:32;93208.16;;;25.15;40.33
11806;BME280;5960;42.602;23.482;2022-09-12T12:59:01;93223.19;;;25.21;40.05
11806;BME280;5960;42.602;23.482;2022-09-12T13:01:30;93226.34;;;24.40;40.86
11806;BME280;5960;42.602;23.482;2022-09-12T13:04:11;93229.22;;;23.59;41.85
11806;BME280;5960;42.602;23.482;2022-09-12T13:06:40;93219.69;;;23.06;43.32
11806;BME280;5960;42.602;23.482;2022-09-12T13:09:23;93227.53;;;22.61;44.79
11806;BME280;5960;42.602;23.482;2022-09-12T13:11:59;93229.38;;;22.35;46.38
11806;BME280;5960;42.602;23.482;2022-09-12T13:14:46;93222.44;;;22.44;46.38
11806;BME280;5960;42.602;23.482;2022-09-12T13:17:18;93222.94;;;22.82;45.98
11806;BME280;5960;42.602;23.482;2022-09-12T13:19:47;93224.53;;;22.99;45.89
11806;BME280;5960;42.602;23.482;2022-09-12T13:22:15;93221.38;;;22.61;45.97
11806;BME280;5960;42.602;23.482;2022-09-12T13:24:44;93225.88;;;22.86;46.82
11806;BME280;5960;42.602;23.482;2022-09-12T13:27:17;93226.97;;;22.85;44.73
11806;BME280;5960;42.602;23.482;2022-09-12T13:29:44;93226.16;;;22.90;45.59
11806;BME280;5960;42.602;23.482;2022-09-12T13:32:11;93231.56;;;22.59;44.64